sensor_id;sensor_type;location;lat;lon;timestamp;P1;durP1;ratioP1;P2;durP2;ratioP2
47625;SDS011;33342;45.574;9.252;2022-08-19T00:01:35;5.38;;;2.10;;
47625;SDS011;33342;45.574;9.252;2022-08-19T00:04:05;5.20;;;2.22;;
47625;SDS011;33342;45.574;9.252;2022-08-19T00:06:36;6.32;;;2.33;;
47625;SDS011;33342;45.574;9.252;2022-08-19T00:09:05;6.68;;;2.15;;
47625;SDS011;33342;45.574;9.252;2022-08-19T00:11:36;7.63;;;2.00;;
47625;SDS011;33342;45.574;9.252;2022-08-19T00:14:05;5.40;;;1.38;;
47625;SDS011;33342;45.574;9.252;2022-08-19T00:16:33;4.07;;;1.85;;
47625;SDS011;33342;45.574;9.252;2022-08-19T00:19:01;8.10;;;2.03;;
47625;SDS011;33342;45.574;9.252;2022-08-19T00:21:28;6.05;;;2.22;;
47625;SDS011;33342;45.574;9.252;2022-08-19T00:23:55;4.43;;;1.90;;
47625;SDS011;33342;45.574;9.252;2022-08-19T00:26:26;5.90;;;1.88;;
47625;SDS011;33342;45.574;9.252;2022-08-19T00:28:54;9.15;;;2.28;;
47625;SDS011;33342;45.574;9.252;2022-08-19T00:31:22;6.30;;;1.98;;
47625;SDS011;33342;45.574;9.252;2022-08-19T00:33:49;5.05;;;2.00;;
47625;SDS011;33342;45.574;9.252;2022-08-19T00:36:17;7.20;;;2.20;;
47625;SDS011;33342;45.574;9.252;2022-08-19T00:38:44;5.65;;;1.95;;
47625;SDS011;33342;45.574;9.252;2022-08-19T00:41:15;6.35;;;2.00;;
47625;SDS011;33342;45.574;9.252;2022-08-19T00:43:57;6.10;;;2.65;;
47625;SDS011;33342;45.574;9.252;2022-08-19T00:46:28;9.43;;;2.15;;
47625;SDS011;33342;45.574;9.252;2022-08-19T00:48:55;6.68;;;2.40;;
47625;SDS011;33342;45.574;9.252;2022-08-19T00:51:25;8.35;;;2.58;;
47625;SDS011;33342;45.574;9.252;2022-08-19T00:53:55;5.13;;;2.50;;
47625;SDS011;33342;45.574;9.252;2022-08-19T00:56:25;6.20;;;2.28;;
47625;SDS011;33342;45.574;9.252;2022-08-19T00:58:55;8.70;;;2.50;;
47625;SDS011;33342;45.574;9.252;2022-08-19T01:01:24;7.05;;;2.40;;
47625;SDS011;33342;45.574;9.252;2022-08-19T01:03:51;6.75;;;2.80;;
47625;SDS011;33342;45.574;9.252;2022-08-19T01:06:22;5.13;;;2.17;;
47625;SDS011;33342;45.574;9.252;2022-08-19T01:08:49;7.25;;;2.05;;
47625;SDS011;33342;45.574;9.252;2022-08-19T01:11:17;7.60;;;2.45;;
47625;SDS011;33342;45.574;9.252;2022-08-19T01:13:44;5.10;;;2.17;;
47625;SDS011;33342;45.574;9.252;2022-08-19T01:16:15;7.30;;;2.33;;
47625;SDS011;33342;45.574;9.252;2022-08-19T01:18:45;6.68;;;2.40;;
47625;SDS011;33342;45.574;9.252;2022-08-19T01:21:16;6.32;;;2.40;;
47625;SDS011;33342;45.574;9.252;2022-08-19T01:24:06;6.13;;;2.25;;
47625;SDS011;33342;45.574;9.252;2022-08-19T01:26:37;9.07;;;2.38;;
47625;SDS011;33342;45.574;9.252;2022-08-19T01:29:07;8.15;;;2.63;;
47625;SDS011;33342;45.574;9.252;2022-08-19T01:31:35;6.72;;;2.67;;
47625;SDS011;33342;45.574;9.252;2022-08-19T01:34:03;6.90;;;2.55;;
47625;SDS011;33342;45.574;9.252;2022-08-19T01:36:35;6.53;;;2.30;;
47625;SDS011;33342;45.574;9.252;2022-08-19T01:39:06;7.75;;;2.83;;
47625;SDS011;33342;45.574;9.252;2022-08-19T01:41:35;6.25;;;2.28;;
47625;SDS011;33342;45.574;9.252;2022-08-19T01:44:03;6.55;;;2.80;;
47625;SDS011;33342;45.574;9.252;2022-08-19T01:46:47;6.40;;;2.50;;
47625;SDS011;33342;45.574;9.252;2022-08-19T01:49:15;8.20;;;2.50;;
47625;SDS011;33342;45.574;9.252;2022-08-19T01:51:44;8.23;;;2.50;;
47625;SDS011;33342;45.574;9.252;2022-08-19T01:54:12;8.45;;;2.90;;
47625;SDS011;33342;45.574;9.252;2022-08-19T01:56:55;7.22;;;2.85;;
47625;SDS011;33342;45.574;9.252;2022-08-19T01:59:27;8.82;;;2.70;;
47625;SDS011;33342;45.574;9.252;2022-08-19T02:01:54;5.20;;;2.78;;
47625;SDS011;33342;45.574;9.252;2022-08-19T02:04:21;6.30;;;2.50;;
47625;SDS011;33342;45.574;9.252;2022-08-19T02:06:49;8.30;;;2.70;;
47625;SDS011;33342;45.574;9.252;2022-08-19T02:09:17;6.40;;;2.65;;
47625;SDS011;33342;45.574;9.252;2022-08-19T02:11:44;6.05;;;2.38;;
47625;SDS011;33342;45.574;9.252;2022-08-19T02:14:11;6.10;;;2.50;;
47625;SDS011;33342;45.574;9.252;2022-08-19T02:16:38;7.30;;;2.42;;
47625;SDS011;33342;45.574;9.252;2022-08-19T02:19:06;8.43;;;2.78;;
47625;SDS011;33342;45.574;9.252;2022-08-19T02:21:35;9.55;;;3.00;;
47625;SDS011;33342;45.574;9.252;2022-08-19T02:24:02;9.20;;;3.05;;
47625;SDS011;33342;45.574;9.252;2022-08-19T02:26:29;5.05;;;2.47;;
47625;SDS011;33342;45.574;9.252;2022-08-19T02:28:59;7.03;;;1.85;;
47625;SDS011;33342;45.574;9.252;2022-08-19T02:31:27;6.22;;;2.60;;
47625;SDS011;33342;45.574;9.252;2022-08-19T02:33:55;8.75;;;2.97;;
47625;SDS011;33342;45.574;9.252;2022-08-19T02:36:23;8.32;;;2.55;;
47625;SDS011;33342;45.574;9.252;2022-08-19T02:38:51;10.48;;;2.75;;
47625;SDS011;33342;45.574;9.252;2022-08-19T02:41:22;6.38;;;2.78;;
47625;SDS011;33342;45.574;9.252;2022-08-19T02:43:53;5.60;;;2.72;;
47625;SDS011;33342;45.574;9.252;2022-08-19T02:46:41;7.00;;;2.53;;
47625;SDS011;33342;45.574;9.252;2022-08-19T02:49:09;8.43;;;3.22;;
47625;SDS011;33342;45.574;9.252;2022-08-19T02:51:38;7.03;;;2.72;;
47625;SDS011;33342;45.574;9.252;2022-08-19T02:54:08;7.60;;;2.83;;
47625;SDS011;33342;45.574;9.252;2022-08-19T02:56:37;8.68;;;2.80;;
47625;SDS011;33342;45.574;9.252;2022-08-19T02:59:06;7.57;;;2.95;;
47625;SDS011;33342;45.574;9.252;2022-08-19T03:01:36;4.85;;;2.50;;
47625;SDS011;33342;45.574;9.252;2022-08-19T03:04:08;7.72;;;3.00;;
47625;SDS011;33342;45.574;9.252;2022-08-19T03:06:37;5.90;;;3.20;;
47625;SDS011;33342;45.574;9.252;2022-08-19T03:09:06;5.10;;;2.22;;
47625;SDS011;33342;45.574;9.252;2022-08-19T03:11:33;7.80;;;2.97;;
47625;SDS011;33342;45.574;9.252;2022-08-19T03:14:01;8.05;;;2.75;;
47625;SDS011;33342;45.574;9.252;2022-08-19T03:16:30;3.97;;;1.75;;
47625;SDS011;33342;45.574;9.252;2022-08-19T03:18:59;6.22;;;2.47;;
47625;SDS011;33342;45.574;9.252;2022-08-19T03:21:31;5.85;;;2.72;;
47625;SDS011;33342;45.574;9.252;2022-08-19T03:24:00;9.35;;;3.17;;
47625;SDS011;33342;45.574;9.252;2022-08-19T03:26:29;5.90;;;2.75;;
47625;SDS011;33342;45.574;9.252;2022-08-19T03:28:57;5.63;;;2.60;;
47625;SDS011;33342;45.574;9.252;2022-08-19T03:31:31;10.23;;;3.42;;
47625;SDS011;33342;45.574;9.252;2022-08-19T03:34:11;6.55;;;2.58;;
47625;SDS011;33342;45.574;9.252;2022-08-19T03:36:40;6.40;;;2.78;;
47625;SDS011;33342;45.574;9.252;2022-08-19T03:39:09;9.35;;;2.65;;
47625;SDS011;33342;45.574;9.252;2022-08-19T03:41:37;8.77;;;2.72;;
47625;SDS011;33342;45.574;9.252;2022-08-19T03:44:16;7.35;;;1.90;;
47625;SDS011;33342;45.574;9.252;2022-08-19T03:49:18;7.22;;;2.75;;
47625;SDS011;33342;45.574;9.252;2022-08-19T03:51:47;8.05;;;2.10;;
47625;SDS011;33342;45.574;9.252;2022-08-19T03:54:16;6.53;;;2.25;;
47625;SDS011;33342;45.574;9.252;2022-08-19T03:56:47;6.45;;;2.75;;
47625;SDS011;33342;45.574;9.252;2022-08-19T03:59:37;7.68;;;2.90;;
47625;SDS011;33342;45.574;9.252;2022-08-19T04:02:07;5.15;;;2.25;;
47625;SDS011;33342;45.574;9.252;2022-08-19T04:04:37;6.28;;;2.80;;
47625;SDS011;33342;45.574;9.252;2022-08-19T04:07:06;7.32;;;2.95;;
47625;SDS011;33342;45.574;9.252;2022-08-19T04:09:34;7.20;;;2.80;;
47625;SDS011;33342;45.574;9.252;2022-08-19T04:12:03;7.30;;;2.20;;
47625;SDS011;33342;45.574;9.252;2022-08-19T04:14:32;6.03;;;2.20;;
47625;SDS011;33342;45.574;9.252;2022-08-19T04:17:00;7.50;;;2.72;;
47625;SDS011;33342;45.574;9.252;2022-08-19T04:19:31;8.55;;;3.10;;
47625;SDS011;33342;45.574;9.252;2022-08-19T04:21:59;6.78;;;2.80;;
47625;SDS011;33342;45.574;9.252;2022-08-19T04:24:27;6.25;;;2.75;;
47625;SDS011;33342;45.574;9.252;2022-08-19T04:26:54;7.47;;;2.95;;
47625;SDS011;33342;45.574;9.252;2022-08-19T04:29:23;7.15;;;2.70;;
47625;SDS011;33342;45.574;9.252;2022-08-19T04:31:52;7.78;;;2.65;;
47625;SDS011;33342;45.574;9.252;2022-08-19T04:34:21;10.15;;;2.90;;
47625;SDS011;33342;45.574;9.252;2022-08-19T04:36:51;7.78;;;2.80;;
47625;SDS011;33342;45.574;9.252;2022-08-19T04:39:21;9.73;;;3.20;;
47625;SDS011;33342;45.574;9.252;2022-08-19T04:42:10;9.45;;;2.80;;
47625;SDS011;33342;45.574;9.252;2022-08-19T04:44:56;9.15;;;2.90;;
47625;SDS011;33342;45.574;9.252;2022-08-19T04:47:25;9.10;;;2.97;;
47625;SDS011;33342;45.574;9.252;2022-08-19T04:50:12;5.78;;;2.90;;
47625;SDS011;33342;45.574;9.252;2022-08-19T04:52:44;7.45;;;3.30;;
47625;SDS011;33342;45.574;9.252;2022-08-19T04:55:11;9.85;;;3.00;;
47625;SDS011;33342;45.574;9.252;2022-08-19T04:57:40;6.57;;;2.63;;
47625;SDS011;33342;45.574;9.252;2022-08-19T05:00:08;8.93;;;2.90;;
47625;SDS011;33342;45.574;9.252;2022-08-19T05:02:36;10.27;;;3.28;;
47625;SDS011;33342;45.574;9.252;2022-08-19T05:05:03;6.68;;;2.83;;
47625;SDS011;33342;45.574;9.252;2022-08-19T05:07:33;8.65;;;3.17;;
47625;SDS011;33342;45.574;9.252;2022-08-19T05:10:01;6.93;;;2.63;;
47625;SDS011;33342;45.574;9.252;2022-08-19T05:12:29;7.25;;;3.00;;
47625;SDS011;33342;45.574;9.252;2022-08-19T05:14:57;8.65;;;3.20;;
47625;SDS011;33342;45.574;9.252;2022-08-19T05:17:25;6.35;;;3.10;;
47625;SDS011;33342;45.574;9.252;2022-08-19T05:19:58;8.75;;;3.42;;
47625;SDS011;33342;45.574;9.252;2022-08-19T05:25:13;7.53;;;3.53;;
47625;SDS011;33342;45.574;9.252;2022-08-19T05:27:46;7.57;;;2.13;;
47625;SDS011;33342;45.574;9.252;2022-08-19T05:30:13;8.63;;;3.75;;
47625;SDS011;33342;45.574;9.252;2022-08-19T05:32:41;9.35;;;3.50;;
47625;SDS011;33342;45.574;9.252;2022-08-19T05:35:08;10.38;;;3.70;;
47625;SDS011;33342;45.574;9.252;2022-08-19T05:37:36;8.10;;;3.45;;
47625;SDS011;33342;45.574;9.252;2022-08-19T05:40:05;7.40;;;3.90;;
47625;SDS011;33342;45.574;9.252;2022-08-19T05:42:33;9.77;;;4.07;;
47625;SDS011;33342;45.574;9.252;2022-08-19T05:45:00;7.22;;;3.92;;
47625;SDS011;33342;45.574;9.252;2022-08-19T05:47:27;8.48;;;4.40;;
47625;SDS011;33342;45.574;9.252;2022-08-19T05:49:54;9.02;;;4.10;;
47625;SDS011;33342;45.574;9.252;2022-08-19T05:52:21;9.18;;;3.70;;
47625;SDS011;33342;45.574;9.252;2022-08-19T05:54:51;7.18;;;4.22;;
47625;SDS011;33342;45.574;9.252;2022-08-19T05:57:24;8.90;;;5.00;;
47625;SDS011;33342;45.574;9.252;2022-08-19T05:59:51;9.93;;;4.72;;
47625;SDS011;33342;45.574;9.252;2022-08-19T06:02:27;14.65;;;5.13;;
47625;SDS011;33342;45.574;9.252;2022-08-19T06:04:57;9.05;;;4.82;;
47625;SDS011;33342;45.574;9.252;2022-08-19T06:07:24;10.10;;;4.95;;
47625;SDS011;33342;45.574;9.252;2022-08-19T06:09:51;11.38;;;5.32;;
47625;SDS011;33342;45.574;9.252;2022-08-19T06:12:27;10.90;;;5.30;;
47625;SDS011;33342;45.574;9.252;2022-08-19T06:14:55;7.95;;;4.70;;
47625;SDS011;33342;45.574;9.252;2022-08-19T06:17:27;11.75;;;6.07;;
47625;SDS011;33342;45.574;9.252;2022-08-19T06:19:57;16.63;;;10.88;;
47625;SDS011;33342;45.574;9.252;2022-08-19T06:22:25;16.83;;;9.93;;
47625;SDS011;33342;45.574;9.252;2022-08-19T06:24:54;11.90;;;7.38;;
47625;SDS011;33342;45.574;9.252;2022-08-19T06:27:22;11.85;;;7.18;;
47625;SDS011;33342;45.574;9.252;2022-08-19T06:29:49;13.20;;;7.95;;
47625;SDS011;33342;45.574;9.252;2022-08-19T06:32:17;11.23;;;6.90;;
47625;SDS011;33342;45.574;9.252;2022-08-19T06:34:48;13.63;;;8.20;;
47625;SDS011;33342;45.574;9.252;2022-08-19T06:37:15;15.48;;;7.95;;
47625;SDS011;33342;45.574;9.252;2022-08-19T06:39:44;13.77;;;8.30;;
47625;SDS011;33342;45.574;9.252;2022-08-19T06:42:12;15.63;;;8.73;;
47625;SDS011;33342;45.574;9.252;2022-08-19T06:44:45;10.48;;;7.78;;
47625;SDS011;33342;45.574;9.252;2022-08-19T06:47:17;13.20;;;8.65;;
47625;SDS011;33342;45.574;9.252;2022-08-19T06:49:53;10.65;;;5.68;;
47625;SDS011;33342;45.574;9.252;2022-08-19T06:52:32;9.80;;;5.63;;
47625;SDS011;33342;45.574;9.252;2022-08-19T06:55:02;10.10;;;4.82;;
47625;SDS011;33342;45.574;9.252;2022-08-19T06:57:31;7.90;;;4.60;;
47625;SDS011;33342;45.574;9.252;2022-08-19T07:00:00;7.97;;;4.40;;
47625;SDS011;33342;45.574;9.252;2022-08-19T07:02:28;7.35;;;4.63;;
47625;SDS011;33342;45.574;9.252;2022-08-19T07:04:55;9.10;;;4.53;;
47625;SDS011;33342;45.574;9.252;2022-08-19T07:07:27;9.60;;;4.13;;
47625;SDS011;33342;45.574;9.252;2022-08-19T07:09:54;8.77;;;4.30;;
47625;SDS011;33342;45.574;9.252;2022-08-19T07:12:28;7.40;;;3.80;;
47625;SDS011;33342;45.574;9.252;2022-08-19T07:15:02;7.57;;;4.10;;
47625;SDS011;33342;45.574;9.252;2022-08-19T07:17:30;8.60;;;4.40;;
47625;SDS011;33342;45.574;9.252;2022-08-19T07:20:00;7.90;;;4.63;;
47625;SDS011;33342;45.574;9.252;2022-08-19T07:22:33;8.80;;;4.32;;
47625;SDS011;33342;45.574;9.252;2022-08-19T07:25:01;7.40;;;3.90;;
47625;SDS011;33342;45.574;9.252;2022-08-19T07:27:30;7.65;;;4.40;;
47625;SDS011;33342;45.574;9.252;2022-08-19T07:29:59;8.43;;;4.70;;
47625;SDS011;33342;45.574;9.252;2022-08-19T07:32:27;9.45;;;4.50;;
47625;SDS011;33342;45.574;9.252;2022-08-19T07:34:54;8.73;;;4.53;;
47625;SDS011;33342;45.574;9.252;2022-08-19T07:37:23;7.78;;;4.72;;
47625;SDS011;33342;45.574;9.252;2022-08-19T07:39:58;8.32;;;4.53;;
47625;SDS011;33342;45.574;9.252;2022-08-19T07:42:26;10.50;;;4.55;;
47625;SDS011;33342;45.574;9.252;2022-08-19T07:44:56;7.38;;;4.60;;
47625;SDS011;33342;45.574;9.252;2022-08-19T07:47:24;8.55;;;5.07;;
47625;SDS011;33342;45.574;9.252;2022-08-19T07:50:11;8.55;;;4.78;;
47625;SDS011;33342;45.574;9.252;2022-08-19T07:52:38;12.68;;;4.85;;
47625;SDS011;33342;45.574;9.252;2022-08-19T07:55:07;8.85;;;4.47;;
47625;SDS011;33342;45.574;9.252;2022-08-19T07:57:56;9.77;;;5.43;;
47625;SDS011;33342;45.574;9.252;2022-08-19T08:00:24;9.50;;;4.55;;
47625;SDS011;33342;45.574;9.252;2022-08-19T08:02:53;12.63;;;4.70;;
47625;SDS011;33342;45.574;9.252;2022-08-19T08:05:22;9.35;;;4.75;;
47625;SDS011;33342;45.574;9.252;2022-08-19T08:08:10;9.95;;;4.38;;
47625;SDS011;33342;45.574;9.252;2022-08-19T08:10:58;8.27;;;4.38;;
47625;SDS011;33342;45.574;9.252;2022-08-19T08:13:26;9.02;;;4.28;;
47625;SDS011;33342;45.574;9.252;2022-08-19T08:15:54;9.95;;;4.38;;
47625;SDS011;33342;45.574;9.252;2022-08-19T08:18:25;7.28;;;4.05;;
47625;SDS011;33342;45.574;9.252;2022-08-19T08:20:54;8.38;;;4.03;;
47625;SDS011;33342;45.574;9.252;2022-08-19T08:23:22;7.13;;;3.50;;
47625;SDS011;33342;45.574;9.252;2022-08-19T08:25:52;6.70;;;3.13;;
47625;SDS011;33342;45.574;9.252;2022-08-19T08:28:23;6.28;;;3.67;;
47625;SDS011;33342;45.574;9.252;2022-08-19T08:30:55;7.68;;;4.03;;
47625;SDS011;33342;45.574;9.252;2022-08-19T08:33:24;8.02;;;4.10;;
47625;SDS011;33342;45.574;9.252;2022-08-19T08:36:09;9.43;;;4.03;;
47625;SDS011;33342;45.574;9.252;2022-08-19T08:38:38;8.52;;;3.90;;
47625;SDS011;33342;45.574;9.252;2022-08-19T08:43:47;8.68;;;4.75;;
47625;SDS011;33342;45.574;9.252;2022-08-19T08:52:02;7.45;;;4.43;;
47625;SDS011;33342;45.574;9.252;2022-08-19T08:54:33;8.00;;;3.47;;
47625;SDS011;33342;45.574;9.252;2022-08-19T09:00:11;11.00;;;3.72;;
47625;SDS011;33342;45.574;9.252;2022-08-19T09:02:43;6.35;;;3.08;;
47625;SDS011;33342;45.574;9.252;2022-08-19T09:05:17;7.13;;;3.33;;
47625;SDS011;33342;45.574;9.252;2022-08-19T09:08:02;6.10;;;2.67;;
47625;SDS011;33342;45.574;9.252;2022-08-19T09:10:46;8.90;;;2.70;;
47625;SDS011;33342;45.574;9.252;2022-08-19T09:16:05;5.97;;;2.90;;
47625;SDS011;33342;45.574;9.252;2022-08-19T09:18:39;6.57;;;2.63;;
47625;SDS011;33342;45.574;9.252;2022-08-19T09:21:09;6.60;;;3.38;;
47625;SDS011;33342;45.574;9.252;2022-08-19T09:23:37;6.15;;;3.03;;
47625;SDS011;33342;45.574;9.252;2022-08-19T09:26:09;6.15;;;3.35;;
47625;SDS011;33342;45.574;9.252;2022-08-19T09:28:43;8.52;;;2.90;;
47625;SDS011;33342;45.574;9.252;2022-08-19T09:31:15;7.13;;;3.35;;
47625;SDS011;33342;45.574;9.252;2022-08-19T09:33:46;7.85;;;3.78;;
47625;SDS011;33342;45.574;9.252;2022-08-19T09:36:18;8.52;;;4.20;;
47625;SDS011;33342;45.574;9.252;2022-08-19T09:39:00;8.00;;;3.95;;
47625;SDS011;33342;45.574;9.252;2022-08-19T09:41:41;7.40;;;4.00;;
47625;SDS011;33342;45.574;9.252;2022-08-19T09:44:13;6.45;;;3.58;;
47625;SDS011;33342;45.574;9.252;2022-08-19T09:46:40;8.80;;;3.85;;
47625;SDS011;33342;45.574;9.252;2022-08-19T09:49:07;10.07;;;4.43;;
47625;SDS011;33342;45.574;9.252;2022-08-19T09:51:34;10.70;;;4.28;;
47625;SDS011;33342;45.574;9.252;2022-08-19T09:54:03;7.95;;;4.65;;
47625;SDS011;33342;45.574;9.252;2022-08-19T09:56:31;7.80;;;4.40;;
47625;SDS011;33342;45.574;9.252;2022-08-19T09:58:59;7.72;;;4.43;;
47625;SDS011;33342;45.574;9.252;2022-08-19T10:01:28;7.57;;;4.63;;
47625;SDS011;33342;45.574;9.252;2022-08-19T10:03:57;9.25;;;4.63;;
47625;SDS011;33342;45.574;9.252;2022-08-19T10:06:26;8.35;;;5.10;;
47625;SDS011;33342;45.574;9.252;2022-08-19T10:09:13;8.05;;;4.43;;
47625;SDS011;33342;45.574;9.252;2022-08-19T10:11:51;7.57;;;4.65;;
47625;SDS011;33342;45.574;9.252;2022-08-19T10:14:20;8.38;;;4.82;;
47625;SDS011;33342;45.574;9.252;2022-08-19T10:16:49;11.02;;;4.75;;
47625;SDS011;33342;45.574;9.252;2022-08-19T10:19:18;9.18;;;5.28;;
47625;SDS011;33342;45.574;9.252;2022-08-19T10:21:51;7.07;;;4.20;;
47625;SDS011;33342;45.574;9.252;2022-08-19T10:24:19;9.57;;;4.32;;
47625;SDS011;33342;45.574;9.252;2022-08-19T10:26:47;9.00;;;4.85;;
47625;SDS011;33342;45.574;9.252;2022-08-19T10:29:22;7.03;;;3.60;;
47625;SDS011;33342;45.574;9.252;2022-08-19T10:32:02;9.00;;;3.70;;
47625;SDS011;33342;45.574;9.252;2022-08-19T10:34:36;6.07;;;2.92;;
47625;SDS011;33342;45.574;9.252;2022-08-19T10:37:14;8.50;;;4.00;;
47625;SDS011;33342;45.574;9.252;2022-08-19T10:39:56;8.43;;;4.07;;
47625;SDS011;33342;45.574;9.252;2022-08-19T10:42:24;6.35;;;3.15;;
47625;SDS011;33342;45.574;9.252;2022-08-19T10:44:51;8.90;;;3.97;;
47625;SDS011;33342;45.574;9.252;2022-08-19T10:47:18;6.78;;;3.33;;
47625;SDS011;33342;45.574;9.252;2022-08-19T10:49:52;8.90;;;4.53;;
47625;SDS011;33342;45.574;9.252;2022-08-19T10:52:40;8.00;;;4.10;;
47625;SDS011;33342;45.574;9.252;2022-08-19T10:55:15;7.63;;;3.80;;
47625;SDS011;33342;45.574;9.252;2022-08-19T10:58:04;6.55;;;3.75;;
47625;SDS011;33342;45.574;9.252;2022-08-19T11:00:36;6.40;;;3.60;;
47625;SDS011;33342;45.574;9.252;2022-08-19T11:03:03;6.82;;;4.20;;
47625;SDS011;33342;45.574;9.252;2022-08-19T11:05:30;5.43;;;3.00;;
47625;SDS011;33342;45.574;9.252;2022-08-19T11:08:05;8.55;;;2.97;;
47625;SDS011;33342;45.574;9.252;2022-08-19T11:10:52;6.97;;;3.30;;
47625;SDS011;33342;45.574;9.252;2022-08-19T11:13:23;8.43;;;2.78;;
47625;SDS011;33342;45.574;9.252;2022-08-19T11:15:59;6.15;;;2.95;;
47625;SDS011;33342;45.574;9.252;2022-08-19T11:18:36;8.02;;;3.00;;
47625;SDS011;33342;45.574;9.252;2022-08-19T11:21:09;6.63;;;2.78;;
47625;SDS011;33342;45.574;9.252;2022-08-19T11:23:39;6.28;;;2.75;;
47625;SDS011;33342;45.574;9.252;2022-08-19T11:26:06;7.10;;;3.03;;
47625;SDS011;33342;45.574;9.252;2022-08-19T11:28:34;7.88;;;3.10;;
47625;SDS011;33342;45.574;9.252;2022-08-19T11:31:01;7.30;;;3.10;;
47625;SDS011;33342;45.574;9.252;2022-08-19T11:33:32;5.78;;;2.75;;
47625;SDS011;33342;45.574;9.252;2022-08-19T11:35:59;8.95;;;2.80;;
47625;SDS011;33342;45.574;9.252;2022-08-19T11:38:27;6.82;;;2.40;;
47625;SDS011;33342;45.574;9.252;2022-08-19T11:40:55;5.90;;;2.78;;
47625;SDS011;33342;45.574;9.252;2022-08-19T11:43:23;7.65;;;3.15;;
47625;SDS011;33342;45.574;9.252;2022-08-19T11:45:53;5.68;;;3.10;;
47625;SDS011;33342;45.574;9.252;2022-08-19T11:48:22;5.53;;;2.58;;
47625;SDS011;33342;45.574;9.252;2022-08-19T11:50:52;6.65;;;2.83;;
47625;SDS011;33342;45.574;9.252;2022-08-19T11:53:22;5.68;;;2.20;;
47625;SDS011;33342;45.574;9.252;2022-08-19T11:55:53;7.63;;;2.85;;
47625;SDS011;33342;45.574;9.252;2022-08-19T11:58:22;6.40;;;2.47;;
47625;SDS011;33342;45.574;9.252;2022-08-19T12:00:51;5.43;;;2.70;;
47625;SDS011;33342;45.574;9.252;2022-08-19T12:03:18;6.75;;;2.60;;
47625;SDS011;33342;45.574;9.252;2022-08-19T12:05:45;8.35;;;3.22;;
47625;SDS011;33342;45.574;9.252;2022-08-19T12:08:13;6.15;;;2.47;;
47625;SDS011;33342;45.574;9.252;2022-08-19T12:10:40;8.38;;;3.63;;
47625;SDS011;33342;45.574;9.252;2022-08-19T12:13:09;5.95;;;2.67;;
47625;SDS011;33342;45.574;9.252;2022-08-19T12:15:37;4.80;;;2.10;;
47625;SDS011;33342;45.574;9.252;2022-08-19T12:18:07;4.65;;;2.08;;
47625;SDS011;33342;45.574;9.252;2022-08-19T12:20:35;6.70;;;2.15;;
47625;SDS011;33342;45.574;9.252;2022-08-19T12:23:04;5.35;;;2.13;;
47625;SDS011;33342;45.574;9.252;2022-08-19T12:25:32;6.28;;;2.00;;
47625;SDS011;33342;45.574;9.252;2022-08-19T12:27:59;4.43;;;1.83;;
47625;SDS011;33342;45.574;9.252;2022-08-19T12:30:44;4.00;;;1.83;;
47625;SDS011;33342;45.574;9.252;2022-08-19T12:33:12;7.25;;;1.70;;
47625;SDS011;33342;45.574;9.252;2022-08-19T12:35:41;3.92;;;1.60;;
47625;SDS011;33342;45.574;9.252;2022-08-19T12:38:11;4.95;;;1.88;;
47625;SDS011;33342;45.574;9.252;2022-08-19T12:40:39;5.45;;;2.38;;
47625;SDS011;33342;45.574;9.252;2022-08-19T12:43:06;5.00;;;1.80;;
47625;SDS011;33342;45.574;9.252;2022-08-19T12:45:34;7.68;;;1.92;;
47625;SDS011;33342;45.574;9.252;2022-08-19T12:48:03;5.03;;;1.98;;
47625;SDS011;33342;45.574;9.252;2022-08-19T12:50:51;4.40;;;2.05;;
47625;SDS011;33342;45.574;9.252;2022-08-19T12:53:18;5.43;;;1.80;;
47625;SDS011;33342;45.574;9.252;2022-08-19T12:55:45;5.50;;;2.00;;
47625;SDS011;33342;45.574;9.252;2022-08-19T12:58:12;5.55;;;1.70;;
47625;SDS011;33342;45.574;9.252;2022-08-19T13:00:39;5.68;;;1.92;;
47625;SDS011;33342;45.574;9.252;2022-08-19T13:03:07;8.80;;;1.90;;
47625;SDS011;33342;45.574;9.252;2022-08-19T13:05:34;4.72;;;1.70;;
47625;SDS011;33342;45.574;9.252;2022-08-19T13:08:01;5.18;;;1.63;;
47625;SDS011;33342;45.574;9.252;2022-08-19T13:10:30;5.38;;;1.67;;
47625;SDS011;33342;45.574;9.252;2022-08-19T13:13:02;5.18;;;1.70;;
47625;SDS011;33342;45.574;9.252;2022-08-19T13:15:36;4.72;;;1.65;;
47625;SDS011;33342;45.574;9.252;2022-08-19T13:18:07;3.60;;;1.53;;
47625;SDS011;33342;45.574;9.252;2022-08-19T13:20:36;5.68;;;1.67;;
47625;SDS011;33342;45.574;9.252;2022-08-19T13:23:04;4.68;;;1.70;;
47625;SDS011;33342;45.574;9.252;2022-08-19T13:25:31;4.40;;;1.73;;
47625;SDS011;33342;45.574;9.252;2022-08-19T13:27:59;4.47;;;1.60;;
47625;SDS011;33342;45.574;9.252;2022-08-19T13:30:26;5.35;;;1.90;;
47625;SDS011;33342;45.574;9.252;2022-08-19T13:33:28;3.63;;;1.20;;
47625;SDS011;33342;45.574;9.252;2022-08-19T13:35:57;4.90;;;1.63;;
47625;SDS011;33342;45.574;9.252;2022-08-19T13:38:26;3.15;;;1.27;;
47625;SDS011;33342;45.574;9.252;2022-08-19T13:40:54;4.68;;;1.60;;
47625;SDS011;33342;45.574;9.252;2022-08-19T13:43:22;3.85;;;1.25;;
47625;SDS011;33342;45.574;9.252;2022-08-19T13:45:53;6.90;;;1.23;;
47625;SDS011;33342;45.574;9.252;2022-08-19T13:48:24;1.98;;;0.80;;
47625;SDS011;33342;45.574;9.252;2022-08-19T13:50:53;2.20;;;1.00;;
47625;SDS011;33342;45.574;9.252;2022-08-19T13:53:21;1.10;;;0.50;;
47625;SDS011;33342;45.574;9.252;2022-08-19T13:55:48;2.47;;;0.80;;
47625;SDS011;33342;45.574;9.252;2022-08-19T13:58:16;2.90;;;0.77;;
47625;SDS011;33342;45.574;9.252;2022-08-19T14:00:47;1.88;;;0.70;;
47625;SDS011;33342;45.574;9.252;2022-08-19T14:03:16;1.38;;;0.60;;
47625;SDS011;33342;45.574;9.252;2022-08-19T14:05:43;2.75;;;0.63;;
47625;SDS011;33342;45.574;9.252;2022-08-19T14:08:10;1.25;;;0.50;;
47625;SDS011;33342;45.574;9.252;2022-08-19T14:10:38;2.17;;;0.75;;
47625;SDS011;33342;45.574;9.252;2022-08-19T14:13:05;2.10;;;0.57;;
47625;SDS011;33342;45.574;9.252;2022-08-19T14:15:32;1.15;;;0.52;;
47625;SDS011;33342;45.574;9.252;2022-08-19T14:18:03;2.15;;;0.50;;
47625;SDS011;33342;45.574;9.252;2022-08-19T14:20:30;1.77;;;0.55;;
47625;SDS011;33342;45.574;9.252;2022-08-19T14:22:59;1.38;;;0.50;;
47625;SDS011;33342;45.574;9.252;2022-08-19T14:25:27;2.97;;;0.70;;
47625;SDS011;33342;45.574;9.252;2022-08-19T14:27:56;1.63;;;0.50;;
47625;SDS011;33342;45.574;9.252;2022-08-19T14:30:25;1.90;;;0.68;;
47625;SDS011;33342;45.574;9.252;2022-08-19T14:32:56;0.73;;;0.30;;
47625;SDS011;33342;45.574;9.252;2022-08-19T14:35:25;0.22;;;0.20;;
47625;SDS011;33342;45.574;9.252;2022-08-19T14:37:53;1.30;;;0.40;;
47625;SDS011;33342;45.574;9.252;2022-08-19T14:40:23;1.92;;;0.50;;
47625;SDS011;33342;45.574;9.252;2022-08-19T14:42:55;2.92;;;0.45;;
47625;SDS011;33342;45.574;9.252;2022-08-19T14:45:26;0.43;;;0.30;;
47625;SDS011;33342;45.574;9.252;2022-08-19T14:47:56;0.60;;;0.30;;
47625;SDS011;33342;45.574;9.252;2022-08-19T14:50:26;1.33;;;0.30;;
47625;SDS011;33342;45.574;9.252;2022-08-19T14:53:04;2.03;;;0.40;;
47625;SDS011;33342;45.574;9.252;2022-08-19T14:55:41;0.50;;;0.30;;
47625;SDS011;33342;45.574;9.252;2022-08-19T14:58:09;0.40;;;0.30;;
47625;SDS011;33342;45.574;9.252;2022-08-19T15:00:55;3.30;;;0.40;;
47625;SDS011;33342;45.574;9.252;2022-08-19T15:03:23;0.98;;;0.32;;
47625;SDS011;33342;45.574;9.252;2022-08-19T15:05:52;0.60;;;0.28;;
47625;SDS011;33342;45.574;9.252;2022-08-19T15:08:20;0.65;;;0.20;;
47625;SDS011;33342;45.574;9.252;2022-08-19T15:10:48;1.23;;;0.40;;
47625;SDS011;33342;45.574;9.252;2022-08-19T15:13:16;0.22;;;0.22;;
47625;SDS011;33342;45.574;9.252;2022-08-19T15:15:43;1.05;;;0.35;;
47625;SDS011;33342;45.574;9.252;2022-08-19T15:18:13;0.65;;;0.20;;
47625;SDS011;33342;45.574;9.252;2022-08-19T15:20:41;1.73;;;0.28;;
47625;SDS011;33342;45.574;9.252;2022-08-19T15:23:13;1.67;;;0.32;;
47625;SDS011;33342;45.574;9.252;2022-08-19T15:25:41;1.10;;;0.32;;